Domov               UVHVVR             MKGP            O straneh              
ZDRAVSTVENO VARSTVO RASTLIN
  MREŽA AGROMET. POSTAJ
 ► PROGNOSTIČNA OBVESTILA
AGROMETEOROLOŠKI PODATKI -
ARSO
OBVLADOVANJE TVEGANJ ZARADI
NEUGODNIH VREMENSKIH RAZMER
  ► NARAVNE NESREČE
  ► SUŠA/MOČA
  ► NAMAKANJE
  ► ŽLED (gozdarstvo)
KARTOGRAFSKI PRIKAZI
SPLETNE POVEZAVE
PROJEKTI IN PUBLIKACIJE

AGROMETEOROLOŠKA MREŽA: VREMENSKE POSTAJE IN FENOLOŠKA OPAZOVANJA

Pregled podatkov za lokacijo Selnica ob Dravi, meteorološka postaja 49160

Pregled senzorjev na lokaciji

ID Ime Zadnja
vrednost
Datum
zadnje
spremembe
Tip
senzorja
3696 Temperatura 2 m ( °C) 12,8 °C 24.8.2017 04:30 50YA
3697 Relativna vlaga 2 m (% RH) 99,13 % RH 24.8.2017 04:30 50YA
3698 Omočenost lista (U) 10 U 24.8.2017 04:30 A730WET
3699 Sončno sevanje (W/m2) 0,37 W/m2 24.8.2017 04:30 Pyranometer SP-Lite
3700 Temperatura tal ( °C) 18,09 °C 24.8.2017 04:30 99TG411E
3701 Hitrost vetra (km/h) 0,38 km/h 24.8.2017 04:30 566.2S-176 (200km/h)
3702 Smer vetra (°) 185,2 ° 24.8.2017 04:30 566.2S-130
3703 Padavine 0.2 mm (mm) 0 mm 24.8.2017 04:30 Rain-O-Matic

Pregled podatkov zadnjih 24 ur

Zap.
št.
Datum in čas Selnica ob Dravi
Hitrost
vetra
Omočenost
lista
Padavine
0.2
mm
Relativna
vlaga
2
m
Smer
vetra
Sončno
sevanje
Temperatura
2
m
Temperatura
tal
0 24.8.2017 03:30 0,38 10 0 99,13 185,2 0,37 12,8 18,09
1 24.8.2017 03:00 0,56 10 0 98,75 298,03 0,43 13,1 18,13
2 24.8.2017 02:30 0,95 10 0 98,78 256,36 0,4 13,3 18,16
3 24.8.2017 02:00 0,73 10 0 98,32 187,55 0,37 13,26 18,2
4 24.8.2017 01:30 2,06 10 0 97,49 177,26 0,4 13,81 18,23
5 24.8.2017 01:00 0,76 10 0 98,37 288,06 0,37 13,23 18,26
6 24.8.2017 00:30 0,48 10 0 97,66 290,25 0,37 13,65 18,31
7 24.8.2017 00:00 0,5 10 0 97,3 233,17 13,61 18,33
8 23.8.2017 23:30 0,1 10 0 96,73 180,57 14,29 18,37
9 23.8.2017 23:00 0,1 10 0 97,31 247,8 13,45 18,39
10 23.8.2017 22:30 0,1 10 0 95,92 310,86 14,37 18,44
11 23.8.2017 22:00 0,1 8 0 93,79 179,93 15,34 18,48
12 23.8.2017 21:30 0,1 4 0 92,87 280,04 15,76 18,49
13 23.8.2017 21:00 0,1 2 0 90,2 205,49 16,31 18,51
14 23.8.2017 20:30 0,1 0 0 89,72 196,61 16,28 18,52
15 23.8.2017 20:00 0,1 0 0 85,4 237,48 17,23 18,53
16 23.8.2017 19:30 0,1 0 0 86,06 246,73 17,52 18,55
17 23.8.2017 19:00 0,1 0 0 74,07 317,49 6,84 19,84 18,58
18 23.8.2017 18:30 0,38 0 0 62,33 167,02 40,53 22,35 18,61
19 23.8.2017 18:00 2,64 0 0 54,55 200,6 109,32 24,19 18,62
20 23.8.2017 17:30 2,35 0 0 49,43 207,79 148,84 25,38 18,6
21 23.8.2017 17:00 1,23 0 0 43,51 177,28 223,85 26,37 18,57
22 23.8.2017 16:30 3,11 0 0 44,94 148,73 305,36 25,98 18,53
23 23.8.2017 16:00 2,84 0 0 43,34 340,13 387,7 26,07 18,52
24 23.8.2017 15:30 3,19 0 0 44,31 153,37 463,69 25,81 18,47
25 23.8.2017 15:00 4,31 0 0 46,7 314,33 531,2 25,35 18,43
26 23.8.2017 14:30 3,99 0 0 45,99 121,76 590,1 25,38 18,38
27 23.8.2017 14:00 2,82 0 0 47,28 336,98 653,24 24,88 18,3
28 23.8.2017 13:30 5,16 0 0 48,86 45,6 700,88 23,78 18,24
29 23.8.2017 13:00 5,22 0 0 51,33 355,67 723,86 23,19 18,18
30 23.8.2017 12:30 6,59 0 0 52,18 101,45 759,96 22,58 18,15
31 23.8.2017 12:00 8,5 0 0 53,54 43,36 741,68 21,85 18,08
32 23.8.2017 11:30 7,57 0 0 55,01 69,29 716,96 21,46 18
33 23.8.2017 11:00 8,06 0 0 54,74 40,28 704,75 20,84 17,97
34 23.8.2017 10:30 7,61 0 0 52,51 64,44 673,11 20,46 17,93
35 23.8.2017 10:00 7,73 0 0 53,48 34,9 623,12 20,19 17,91
36 23.8.2017 09:30 6,09 0 0 56,32 79,34 572,3 19,6 17,84
37 23.8.2017 09:00 4,64 0 0 61,02 44,94 483,22 18,72 17,8
38 23.8.2017 08:30 2,61 0 0 70,19 158,23 427,28 17,54 17,72
39 23.8.2017 08:00 2,81 1 0 77,76 43 321,17 15,33 17,71
40 23.8.2017 07:30 4,35 10 0 87,05 291,27 236,21 13,5 17,71
41 23.8.2017 07:00 3,45 10 0 92,91 279,75 171,66 12,4 17,7
42 23.8.2017 06:30 1,93 10 0 97,45 226,45 96,77 11,45 17,69
43 23.8.2017 06:00 1,4 10 0 99,03 276,6 33,02 10,46 17,69
44 23.8.2017 05:30 0,73 10 0 99,32 210,84 4,43 10,2 17,71
© 2011 Ministrstvo za kmetijstvo, gozdarstvo in prehrano. Vse pravice pridržane.